Time;durP1;ratioP1;P1;durP2;ratioP2;P2;SDS_P1;SDS_P2;PMS_P1;PMS_P2;Temp;Humidity;BMP_temperature;BMP_pressure;BME280_temperature;BME280_humidity;BME280_pressure;Samples;Min_cycle;Max_cycle;Signal;HPM_P1;HPM_P2
2022/01/13 00:02:23;;;;;;;1.17;0.77;;;;;;;11.34;36.29;101524.91;5020867;28;20381;-62
2022/01/13 00:04:51;;;;;;;2.53;1.43;;;;;;;11.55;36.34;101538.00;5029876;28;20143;-62
2022/01/13 00:07:17;;;;;;;0.87;0.80;;;;;;;11.56;36.37;101539.69;5023557;28;20087;-62
2022/01/13 00:09:44;;;;;;;1.90;0.93;;;;;;;11.62;36.40;101554.56;5022536;28;20128;-61
2022/01/13 00:12:13;;;;;;;0.87;0.80;;;;;;;11.33;36.49;101520.41;5024833;28;20497;-61
2022/01/13 00:15:22;;;;;;;0.30;0.30;;;;;;;11.55;36.51;101546.38;5019067;28;20154;-59
2022/01/13 00:17:57;;;;;;;0.67;0.53;;;;;;;11.52;36.72;101546.94;5016945;28;20049;-61
2022/01/13 00:20:48;;;;;;;0.60;0.60;;;;;;;11.38;36.77;101545.63;5023078;28;20065;-61
2022/01/13 00:26:07;;;;;;;1.17;0.97;;;;;;;11.44;36.68;101544.59;5012796;28;20141;-60
2022/01/13 00:28:35;;;;;;;0.50;0.50;;;;;;;11.42;36.50;101541.22;5010904;28;20485;-62
2022/01/13 00:31:05;;;;;;;1.37;0.73;;;;;;;11.48;36.54;101530.91;5011926;28;20049;-62
2022/01/13 00:33:32;;;;;;;;;;;;;;;11.29;36.25;101542.47;5009669;28;20049;-61
2022/01/13 00:36:00;;;;;;;4.17;0.80;;;;;;;11.33;36.49;101532.44;5016461;28;19967;-61
2022/01/13 00:38:29;;;;;;;3.17;1.00;;;;;;;11.43;36.25;101534.50;5020103;28;20077;-64
2022/01/13 00:40:57;;;;;;;1.73;0.90;;;;;;;11.41;36.62;101550.69;5020653;28;20085;-62
2022/01/13 00:43:24;;;;;;;1.33;0.60;;;;;;;11.30;36.28;101516.19;5024050;28;20382;-63
2022/01/13 00:45:51;;;;;;;0.77;0.67;;;;;;;11.47;35.88;101532.88;5017758;28;20064;-62
2022/01/13 00:48:19;;;;;;;0.70;0.60;;;;;;;11.48;35.77;101528.97;5014228;28;20414;-62
2022/01/13 00:50:46;;;;;;;0.77;0.60;;;;;;;11.55;35.76;101551.13;5019083;28;20172;-62
2022/01/13 00:53:13;;;;;;;0.87;0.67;;;;;;;11.54;36.14;101544.69;5019454;28;20129;-63
2022/01/13 00:55:57;;;;;;;1.17;0.60;;;;;;;11.45;35.80;101535.09;5021037;28;20129;-63
2022/01/13 00:58:30;;;;;;;0.40;0.40;;;;;;;11.44;35.78;101530.59;5024454;28;20053;-61
2022/01/13 01:00:58;;;;;;;0.30;0.30;;;;;;;11.52;35.88;101543.28;5023519;28;20053;-61
2022/01/13 01:03:26;;;;;;;0.43;0.43;;;;;;;11.49;35.96;101546.63;5017529;28;20048;-61
2022/01/13 01:05:55;;;;;;;0.50;0.50;;;;;;;11.46;35.63;101547.97;5020109;28;20045;-61
2022/01/13 01:08:23;;;;;;;0.70;0.70;;;;;;;11.36;35.77;101550.66;5018264;28;20042;-60
2022/01/13 01:10:53;;;;;;;0.57;0.57;;;;;;;11.30;35.79;101526.53;5022047;28;20042;-62
2022/01/13 01:13:26;;;;;;;0.45;0.45;;;;;;;11.35;35.97;101523.78;5019356;28;20108;-62
2022/01/13 01:15:56;;;;;;;0.57;0.47;;;;;;;11.29;36.01;101531.28;5020095;28;20081;-61
2022/01/13 01:18:33;;;;;;;1.25;0.98;;;;;;;11.27;35.79;101533.47;5019615;28;20061;-65
2022/01/13 01:26:29;;;;;;;0.63;0.57;;;;;;;11.22;35.27;101515.81;5014003;28;20140;-60
2022/01/13 01:29:14;;;;;;;1.53;0.67;;;;;;;11.29;35.26;101531.28;5018900;28;20377;-60
2022/01/13 01:31:47;;;;;;;0.33;0.33;;;;;;;11.32;35.42;101515.94;5026759;28;20144;-59
2022/01/13 01:36:58;;;;;;;0.57;0.40;;;;;;;11.35;35.60;101527.44;5022375;28;20133;-59
2022/01/13 01:39:26;;;;;;;0.50;0.50;;;;;;;11.26;35.34;101529.00;5024250;28;20193;-60
2022/01/13 01:41:55;;;;;;;0.83;0.40;;;;;;;11.27;35.40;101538.22;5027899;28;20081;-58
2022/01/13 01:44:28;;;;;;;1.00;0.60;;;;;;;11.17;35.52;101538.94;5032085;28;20116;-58
2022/01/13 01:46:58;;;;;;;0.50;0.50;;;;;;;11.17;35.53;101526.94;5023185;28;20045;-57
2022/01/13 01:49:26;;;;;;;0.40;0.40;;;;;;;11.16;35.67;101526.09;5016790;28;20042;-57
2022/01/13 01:51:59;;;;;;;0.30;0.30;;;;;;;11.16;35.78;101540.06;5023548;28;20102;-61
2022/01/13 01:54:27;;;;;;;0.30;0.27;;;;;;;11.19;35.92;101541.50;5026772;28;20458;-62
2022/01/13 01:56:54;;;;;;;0.33;0.33;;;;;;;10.89;35.90;101486.91;5026150;28;20129;-61
2022/01/13 01:59:26;;;;;;;0.50;0.30;;;;;;;11.08;35.79;101524.59;5027829;28;20124;-58
2022/01/13 02:01:55;;;;;;;2.20;0.40;;;;;;;11.13;35.65;101527.44;5027347;28;20529;-59
2022/01/13 02:04:25;;;;;;;1.53;0.50;;;;;;;11.01;35.89;101549.09;5022483;28;20041;-58
2022/01/13 02:06:54;;;;;;;0.50;0.50;;;;;;;10.96;35.92;101535.06;5015842;28;20615;-57
2022/01/13 02:09:22;;;;;;;0.40;0.40;;;;;;;10.93;35.80;101520.75;5029312;28;20058;-58
2022/01/13 02:11:56;;;;;;;1.13;0.70;;;;;;;10.97;35.65;101527.50;5026214;28;20132;-57
2022/01/13 02:16:59;;;;;;;1.13;0.88;;;;;;;10.96;35.63;101537.84;5024286;28;20095;-65
2022/01/13 02:19:26;;;;;;;1.23;0.80;;;;;;;10.88;35.43;101524.34;5029485;28;20041;-59
2022/01/13 02:21:53;;;;;;;0.30;0.30;;;;;;;10.88;35.91;101525.19;5022493;28;20077;-60
2022/01/13 02:24:20;;;;;;;1.27;0.80;;;;;;;10.83;35.62;101525.09;5023427;28;20045;-58
2022/01/13 02:26:48;;;;;;;0.40;0.37;;;;;;;10.89;35.97;101532.44;5026654;28;20132;-59
2022/01/13 02:29:15;;;;;;;1.37;0.60;;;;;;;10.78;35.75;101530.63;5028306;28;20137;-59
2022/01/13 02:31:42;;;;;;;0.80;0.70;;;;;;;10.81;35.90;101535.69;5021467;28;20085;-60
2022/01/13 02:34:08;;;;;;;0.93;0.70;;;;;;;10.80;35.85;101549.91;5017817;28;20490;-61
2022/01/13 02:36:37;;;;;;;0.93;0.63;;;;;;;10.79;35.83;101526.72;5021310;28;20124;-61
2022/01/13 02:39:04;;;;;;;0.60;0.60;;;;;;;10.83;35.80;101525.09;5022765;28;20077;-62
2022/01/13 02:41:31;;;;;;;0.77;0.60;;;;;;;10.73;36.00;101532.50;5022048;28;20133;-62
2022/01/13 02:43:59;;;;;;;0.60;0.50;;;;;;;10.72;36.29;101548.41;5022953;28;20529;-61
2022/01/13 02:49:12;;;;;;;0.80;0.80;;;;;;;10.63;36.08;101528.47;5029922;28;20048;-63
2022/01/13 02:51:43;;;;;;;0.43;0.43;;;;;;;10.59;36.45;101538.44;5022554;28;20490;-62
2022/01/13 02:54:11;;;;;;;1.20;0.93;;;;;;;10.55;36.10;101537.28;5018854;28;20046;-62
2022/01/13 02:56:39;;;;;;;0.77;0.50;;;;;;;10.50;36.49;101542.78;5026714;28;20045;-62
2022/01/13 02:59:07;;;;;;;0.63;0.63;;;;;;;10.43;36.46;101517.00;5019533;28;20489;-61
2022/01/13 03:01:35;;;;;;;0.20;0.20;;;;;;;10.48;36.34;101531.03;5027479;28;20500;-62
2022/01/13 03:04:04;;;;;;;0.87;0.87;;;;;;;10.52;36.24;101543.38;5022254;28;20041;-61
2022/01/13 03:06:35;;;;;;;0.30;0.30;;;;;;;10.54;36.03;101534.75;5027234;28;22703;-61
2022/01/13 03:09:04;;;;;;;;;;;;;;;10.31;36.37;101533.84;5022611;28;20077;-69
2022/01/13 03:11:35;;;;;;;0.53;0.50;;;;;;;10.48;36.12;101536.59;5016863;28;20230;-64
2022/01/13 03:14:05;;;;;;;0.33;0.33;;;;;;;10.40;36.16;101525.88;5028103;28;20140;-64
2022/01/13 03:16:31;;;;;;;0.73;0.60;;;;;;;10.48;35.77;101536.59;5022419;28;20449;-65
2022/01/13 03:18:58;;;;;;;0.53;0.53;;;;;;;10.33;35.92;101526.06;5021905;28;20107;-63
2022/01/13 03:21:25;;;;;;;0.80;0.70;;;;;;;10.38;35.78;101530.88;5023447;28;20154;-63
2022/01/13 03:23:52;;;;;;;0.60;0.60;;;;;;;10.06;35.61;101470.03;5022007;28;20145;-63
2022/01/13 03:26:22;;;;;;;0.63;0.40;;;;;;;10.23;35.56;101531.44;5021294;28;20047;-62
2022/01/13 03:29:35;;;;;;;0.88;0.70;;;;;;;10.30;35.89;101520.13;5021496;28;20489;-66
2022/01/13 03:31:37;;;;;;;0.50;0.50;;;;;;;10.38;35.75;101514.13;5020101;28;20141;-66
2022/01/13 03:34:05;;;;;;;1.07;0.63;;;;;;;10.31;35.58;101525.44;5015152;28;20049;-64
2022/01/13 03:36:33;;;;;;;0.33;0.33;;;;;;;10.33;35.68;101512.09;5029210;28;20100;-64
2022/01/13 03:38:59;;;;;;;1.43;0.60;;;;;;;10.25;35.76;101515.28;5024450;28;20133;-62
2022/01/13 03:41:27;;;;;;;0.83;0.40;;;;;;;10.25;35.76;101514.44;5022948;28;20145;-67
2022/01/13 03:43:55;;;;;;;0.47;0.30;;;;;;;10.16;35.82;101528.81;5016014;28;20140;-66
2022/01/13 03:46:22;;;;;;;0.83;0.80;;;;;;;10.12;35.46;101512.81;5020566;28;20078;-63
2022/01/13 03:48:49;;;;;;;1.20;1.10;;;;;;;10.15;35.63;101518.78;5022062;28;20103;-62
2022/01/13 03:51:17;;;;;;;0.60;0.60;;;;;;;10.19;35.33;101517.16;5020864;28;20519;-61
2022/01/13 03:54:15;;;;;;;2.17;0.60;;;;;;;10.17;35.18;101522.13;5018927;28;20954;-62
2022/01/13 03:56:42;;;;;;;1.20;0.67;;;;;;;10.18;34.98;101526.59;5026779;28;20152;-61
2022/01/13 03:59:15;;;;;;;0.67;0.53;;;;;;;10.20;34.82;101518.84;5014133;28;20069;-61
2022/01/13 04:02:11;;;;;;;0.53;0.50;;;;;;;9.99;34.26;101500.06;5022952;28;20077;-62
2022/01/13 04:04:44;;;;;;;0.57;0.40;;;;;;;10.11;34.44;101523.16;5019853;28;20513;-61
2022/01/13 04:07:17;;;;;;;0.67;0.67;;;;;;;10.14;33.29;101536.59;5022298;28;20056;-61
2022/01/13 04:09:43;;;;;;;1.03;0.60;;;;;;;10.12;32.87;101510.91;5022237;28;20148;-62
2022/01/13 04:12:13;;;;;;;0.50;0.50;;;;;;;10.16;32.91;101555.91;5018107;28;20053;-62
2022/01/13 04:14:57;;;;;;;0.93;0.70;;;;;;;10.10;32.93;101534.56;5022116;28;20382;-62
2022/01/13 04:17:26;;;;;;;1.63;0.80;;;;;;;9.99;32.58;101516.81;5025026;28;20136;-62
2022/01/13 04:19:53;;;;;;;0.53;0.50;;;;;;;10.00;32.52;101529.66;5026801;28;20565;-62
2022/01/13 04:22:20;;;;;;;1.00;0.90;;;;;;;9.99;32.63;101541.94;5025595;28;20084;-61
2022/01/13 04:24:50;;;;;;;0.40;0.40;;;;;;;9.96;32.65;101539.66;5025159;28;20128;-62
2022/01/13 04:27:23;;;;;;;1.17;0.90;;;;;;;9.88;32.85;101545.63;5013179;28;20441;-62
2022/01/13 04:30:11;;;;;;;0.53;0.50;;;;;;;9.81;32.94;101533.78;5012436;28;20084;-62
2022/01/13 04:32:38;;;;;;;1.47;0.50;;;;;;;9.85;33.11;101551.72;5025174;28;22197;-62
2022/01/13 04:35:09;;;;;;;0.47;0.47;;;;;;;9.86;33.00;101542.25;5017246;28;20049;-62
2022/01/13 04:37:36;;;;;;;0.47;0.47;;;;;;;9.69;33.25;101537.50;5022101;28;20127;-62
2022/01/13 04:40:05;;;;;;;0.60;0.60;;;;;;;9.82;33.31;101532.69;5026934;28;20049;-72
2022/01/13 04:42:36;;;;;;;3.03;0.57;;;;;;;9.63;33.47;101518.97;5020905;28;20556;-71
2022/01/13 04:45:04;;;;;;;0.33;0.33;;;;;;;9.72;33.68;101527.78;5019151;28;20088;-66
2022/01/13 04:47:31;;;;;;;1.20;0.50;;;;;;;9.52;33.59;101505.94;5030868;28;20096;-75
2022/01/13 04:49:58;;;;;;;0.77;0.43;;;;;;;9.60;33.96;101536.19;5024335;28;20045;-76
2022/01/13 04:52:25;;;;;;;0.50;0.43;;;;;;;9.62;33.70;101545.16;5024548;28;20125;-75
2022/01/13 04:54:52;;;;;;;0.70;0.50;;;;;;;9.52;34.02;101549.72;5016190;28;20053;-71
2022/01/13 04:57:19;;;;;;;0.50;0.50;;;;;;;9.59;34.07;101539.25;5025863;28;20133;-62
2022/01/13 04:59:46;;;;;;;1.20;0.90;;;;;;;9.47;33.97;101539.31;5025207;28;20149;-61
2022/01/13 05:02:16;;;;;;;1.50;0.97;;;;;;;9.31;34.33;101528.94;5027223;28;20132;-59
2022/01/13 05:04:44;;;;;;;0.40;0.40;;;;;;;9.52;34.21;101547.75;5024492;28;20492;-59
2022/01/13 05:07:10;;;;;;;0.93;0.50;;;;;;;9.21;34.22;101490.56;5026409;28;20548;-59
2022/01/13 05:09:37;;;;;;;0.40;0.40;;;;;;;9.50;34.33;101547.16;5034263;28;20069;-59
2022/01/13 05:12:05;;;;;;;0.40;0.40;;;;;;;9.55;34.30;101561.19;5021402;28;20052;-59
2022/01/13 05:14:32;;;;;;;0.53;0.47;;;;;;;9.51;34.34;101540.50;5023568;28;20045;-59
2022/01/13 05:19:37;;;;;;;1.03;0.77;;;;;;;9.43;34.58;101555.66;5026625;28;20140;-62
2022/01/13 05:24:33;;;;;;;0.75;0.63;;;;;;;9.24;34.55;101555.03;5026642;28;20049;-61
2022/01/13 05:27:00;;;;;;;0.80;0.47;;;;;;;9.25;34.64;101551.13;5032729;28;20076;-60
2022/01/13 05:29:27;;;;;;;0.50;0.50;;;;;;;9.25;34.52;101551.13;5022910;28;20049;-60
2022/01/13 05:31:54;;;;;;;0.40;0.40;;;;;;;9.28;34.40;101560.94;5027579;28;20133;-61
2022/01/13 05:34:21;;;;;;;1.13;1.03;;;;;;;9.20;34.39;101542.69;5030924;28;20409;-61
2022/01/13 05:37:08;;;;;;;1.07;0.73;;;;;;;9.24;34.46;101563.38;5030620;28;20045;-62
2022/01/13 05:39:36;;;;;;;0.50;0.50;;;;;;;9.30;34.32;101563.47;5020942;28;20111;-63
2022/01/13 05:42:03;;;;;;;0.70;0.70;;;;;;;9.36;34.42;101568.06;5029068;28;20065;-62
2022/01/13 05:44:37;;;;;;;1.17;0.60;;;;;;;9.38;34.41;101571.47;5028578;28;20115;-61
2022/01/13 05:47:09;;;;;;;1.90;0.70;;;;;;;9.27;34.26;101555.63;5017270;28;20050;-63
2022/01/13 05:49:38;;;;;;;0.70;0.60;;;;;;;9.28;34.21;101555.38;5026313;28;20572;-64
2022/01/13 05:52:09;;;;;;;0.40;0.40;;;;;;;9.28;33.99;101549.78;5023151;28;20073;-64
2022/01/13 05:54:37;;;;;;;0.40;0.40;;;;;;;9.24;34.24;101543.88;5024465;28;20097;-64
2022/01/13 05:57:04;;;;;;;1.50;0.97;;;;;;;9.31;34.31;101554.03;5016574;28;20080;-62
2022/01/13 05:59:31;;;;;;;0.50;0.50;;;;;;;9.31;34.20;101554.03;5021194;28;20088;-62
2022/01/13 06:01:58;;;;;;;0.50;0.40;;;;;;;9.30;34.48;101549.53;5032980;28;20080;-63
2022/01/13 06:04:25;;;;;;;0.43;0.43;;;;;;;9.20;34.36;101539.03;5027858;28;20049;-62
2022/01/13 06:06:52;;;;;;;0.50;0.50;;;;;;;9.17;34.57;101559.03;5025030;28;20137;-63
2022/01/13 06:09:19;;;;;;;0.30;0.30;;;;;;;9.23;34.47;101567.28;5015464;28;20152;-63
2022/01/13 06:11:59;;;;;;;0.70;0.70;;;;;;;9.29;34.42;101576.56;5025126;28;20046;-60
2022/01/13 06:14:25;;;;;;;0.60;0.60;;;;;;;9.29;34.12;101578.50;5030537;28;20122;-62
2022/01/13 06:16:52;;;;;;;0.40;0.40;;;;;;;9.28;34.01;101572.09;5028560;28;20377;-62
2022/01/13 06:19:19;;;;;;;1.53;0.87;;;;;;;9.32;34.25;101566.88;5029452;28;20069;-59
2022/01/13 06:21:47;;;;;;;4.97;0.40;;;;;;;9.28;34.17;101572.09;5026281;28;20052;-67
2022/01/13 06:24:14;;;;;;;0.43;0.37;;;;;;;9.18;34.19;101569.09;5017045;28;20206;-67
2022/01/13 06:26:41;;;;;;;0.57;0.57;;;;;;;9.11;34.32;101563.66;5022721;28;20125;-69
2022/01/13 06:29:08;;;;;;;1.90;0.40;;;;;;;9.20;34.26;101592.00;5030084;28;20077;-65
2022/01/13 06:31:35;;;;;;;0.50;0.50;;;;;;;9.19;34.16;101593.06;5019947;28;20136;-61
2022/01/13 06:34:02;;;;;;;0.30;0.30;;;;;;;9.21;34.28;101588.09;5023820;28;20045;-65
2022/01/13 06:36:31;;;;;;;0.40;0.40;;;;;;;9.17;34.49;101590.53;5018738;28;20069;-64
2022/01/13 06:38:58;;;;;;;0.73;0.50;;;;;;;9.22;34.43;101585.06;5020574;28;20734;-66
2022/01/13 06:41:25;;;;;;;1.60;0.60;;;;;;;9.23;34.29;101585.91;5016721;28;20565;-66
2022/01/13 06:43:54;;;;;;;0.73;0.70;;;;;;;8.90;34.57;101565.16;5023027;28;20133;-66
2022/01/13 06:46:21;;;;;;;0.87;0.70;;;;;;;9.16;34.63;101593.56;5024076;28;20053;-65
2022/01/13 06:48:48;;;;;;;0.80;0.57;;;;;;;9.14;34.78;101588.25;5015391;28;20050;-62
2022/01/13 06:51:15;;;;;;;0.40;0.40;;;;;;;9.15;34.51;101594.66;5013453;28;20103;-57
2022/01/13 06:53:42;;;;;;;0.57;0.50;;;;;;;9.05;34.54;101572.16;5020684;28;20405;-60
2022/01/13 06:56:11;;;;;;;0.67;0.53;;;;;;;9.12;34.59;101584.84;5022989;28;20068;-60
2022/01/13 06:58:37;;;;;;;0.80;0.63;;;;;;;9.07;34.73;101604.25;5027069;28;20136;-60
2022/01/13 07:01:05;;;;;;;0.40;0.40;;;;;;;9.08;34.76;101592.00;5015165;28;20140;-60
2022/01/13 07:03:37;;;;;;;0.30;0.30;;;;;;;9.06;34.88;101597.00;5019438;28;20148;-60
2022/01/13 07:06:05;;;;;;;0.67;0.53;;;;;;;9.03;34.86;101591.91;5020125;28;20132;-60
2022/01/13 07:08:33;;;;;;;0.80;0.60;;;;;;;9.02;35.04;101602.22;5023573;28;20088;-59
2022/01/13 07:11:03;;;;;;;0.30;0.30;;;;;;;9.00;34.90;101586.81;5021694;28;20084;-59
2022/01/13 07:13:32;;;;;;;1.13;0.77;;;;;;;9.08;35.04;101600.38;5020590;28;20124;-60
2022/01/13 07:16:01;;;;;;;0.60;0.60;;;;;;;9.12;34.87;101601.56;5020952;28;20060;-60
2022/01/13 07:18:28;;;;;;;2.83;0.53;;;;;;;9.04;34.93;101604.75;5018389;28;20044;-58
2022/01/13 07:20:56;;;;;;;0.83;0.40;;;;;;;8.98;34.88;101612.13;5030647;28;20132;-59
2022/01/13 07:23:23;;;;;;;0.40;0.40;;;;;;;8.96;34.95;101602.34;5019002;28;20404;-59
2022/01/13 07:25:50;;;;;;;0.73;0.70;;;;;;;9.03;35.17;101605.84;5020960;28;20088;-59
2022/01/13 07:28:17;;;;;;;0.37;0.37;;;;;;;8.96;35.08;101605.97;5020711;28;20076;-63
2022/01/13 07:30:44;;;;;;;1.30;0.63;;;;;;;8.98;35.31;101614.06;5017387;28;20494;-60
2022/01/13 07:33:11;;;;;;;0.50;0.50;;;;;;;8.92;35.41;101607.56;5020371;28;20069;-59
2022/01/13 07:35:38;;;;;;;2.57;0.80;;;;;;;8.77;35.54;101599.69;5017308;28;20426;-59
2022/01/13 07:38:04;;;;;;;0.90;0.70;;;;;;;8.86;35.49;101616.88;5023082;28;20073;-59
2022/01/13 07:40:31;;;;;;;0.30;0.30;;;;;;;8.78;35.77;101625.59;5019769;28;20077;-59
2022/01/13 07:42:58;;;;;;;0.70;0.50;;;;;;;8.70;35.99;101598.13;5014763;28;20144;-59
2022/01/13 07:45:25;;;;;;;0.90;0.70;;;;;;;8.62;36.30;101620.75;5014298;28;20045;-59
2022/01/13 07:47:52;;;;;;;0.93;0.60;;;;;;;8.45;35.98;101578.88;5024625;28;20050;-58
2022/01/13 07:50:19;;;;;;;1.20;0.80;;;;;;;8.53;36.93;101612.75;5021605;28;20560;-59
2022/01/13 07:52:46;;;;;;;1.10;0.70;;;;;;;8.49;36.67;101619.06;5017707;28;20145;-59
2022/01/13 07:55:12;;;;;;;1.03;0.87;;;;;;;8.45;37.04;101623.41;5022271;28;20136;-58
2022/01/13 07:57:40;;;;;;;0.63;0.40;;;;;;;8.49;37.06;101624.63;5015315;28;20084;-61
2022/01/13 08:00:11;;;;;;;0.60;0.50;;;;;;;8.36;37.05;101611.75;5016473;28;20056;-59
2022/01/13 08:02:38;;;;;;;1.00;0.70;;;;;;;8.38;37.34;101622.69;5016890;28;20124;-47
2022/01/13 08:05:07;;;;;;;0.30;0.30;;;;;;;8.41;37.24;101627.75;5011512;28;20071;-47
2022/01/13 08:07:34;;;;;;;0.40;0.40;;;;;;;8.43;37.21;101647.84;5023646;28;20624;-46
2022/01/13 08:10:02;;;;;;;0.53;0.53;;;;;;;8.43;37.22;101633.94;5019268;28;20092;-48
2022/01/13 08:12:28;;;;;;;0.50;0.50;;;;;;;8.36;37.26;101619.25;5020627;28;20087;-49
2022/01/13 08:14:55;;;;;;;0.83;0.80;;;;;;;8.41;37.40;101645.31;5026746;28;20136;-49
2022/01/13 08:20:09;;;;;;;1.07;0.53;;;;;;;8.64;37.19;101638.91;5020316;28;20379;-46
2022/01/13 08:22:36;;;;;;;0.57;0.57;;;;;;;8.84;36.87;101640.50;5018713;28;20049;-46
2022/01/13 08:25:08;;;;;;;0.70;0.70;;;;;;;9.12;36.73;101637.78;5017985;28;20399;-48
2022/01/13 08:27:36;;;;;;;1.20;0.60;;;;;;;9.29;35.91;101637.03;5019456;28;20131;-50
2022/01/13 08:30:05;;;;;;;1.37;1.27;;;;;;;9.51;35.98;101632.50;5015324;28;20470;-48
2022/01/13 08:32:32;;;;;;;0.80;0.60;;;;;;;9.67;35.49;101642.88;5010009;28;20140;-55
2022/01/13 08:34:59;;;;;;;2.37;0.80;;;;;;;9.81;35.07;101646.25;5010191;28;20050;-49
2022/01/13 08:37:26;;;;;;;0.77;0.70;;;;;;;9.75;34.98;101612.91;5011242;28;20661;-48
2022/01/13 08:39:55;;;;;;;5.50;0.60;;;;;;;10.16;34.90;101645.22;5013453;28;20148;-45
2022/01/13 08:42:22;;;;;;;1.45;0.75;;;;;;;10.34;34.42;101644.16;5013039;28;20081;-46
2022/01/13 08:44:49;;;;;;;0.60;0.60;;;;;;;10.50;34.45;101651.72;5014749;28;20092;-46
2022/01/13 08:47:16;;;;;;;1.70;0.83;;;;;;;10.66;34.51;101650.84;5020936;28;21307;-48
2022/01/13 08:49:43;;;;;;;0.80;0.80;;;;;;;10.80;34.08;101653.28;5026296;28;20128;-46
2022/01/13 08:52:10;;;;;;;0.93;0.77;;;;;;;11.05;33.61;101664.03;5025994;28;20564;-46
2022/01/13 08:54:38;;;;;;;0.50;0.50;;;;;;;11.19;33.64;101661.72;5022751;28;20746;-50
2022/01/13 08:57:06;;;;;;;1.20;0.53;;;;;;;11.04;33.64;101646.44;5022372;28;20137;-49
2022/01/13 08:59:33;;;;;;;2.53;0.60;;;;;;;11.17;33.65;101659.16;5015495;28;20058;-46
2022/01/13 09:02:00;;;;;;;0.53;0.53;;;;;;;11.28;33.64;101640.59;5021200;28;20080;-50
2022/01/13 09:04:27;;;;;;;1.27;1.00;;;;;;;11.64;33.55;101655.88;5020713;28;20042;-49
2022/01/13 09:06:54;;;;;;;0.70;0.70;;;;;;;12.08;33.35;101650.28;5021870;28;20053;-50
2022/01/13 09:09:21;;;;;;;0.87;0.70;;;;;;;12.35;32.95;101657.81;5019741;28;20133;-50
2022/01/13 09:11:50;;;;;;;3.20;1.60;;;;;;;12.29;32.56;101640.13;5020673;28;20073;-50
2022/01/13 09:14:22;;;;;;;1.60;1.20;;;;;;;12.65;32.57;101660.03;5023487;28;20137;-45
2022/01/13 09:16:50;;;;;;;2.93;1.30;;;;;;;12.99;32.26;101667.03;5020910;28;20057;-46
2022/01/13 09:19:18;;;;;;;0.87;0.70;;;;;;;13.16;32.58;101663.19;5018891;28;20049;-46
2022/01/13 09:24:25;;;;;;;2.50;1.50;;;;;;;13.96;31.59;101653.50;5238020;23;20042;-62
2022/01/13 09:26:53;;;;;;;5.20;3.10;;;;;;;14.46;31.26;101662.28;4960450;28;20167;-61
2022/01/13 09:29:20;;;;;;;7.10;5.07;;;;;;;15.04;30.79;101668.53;4966524;28;20062;-62
2022/01/13 09:31:47;;;;;;;5.40;3.67;;;;;;;15.72;30.70;101670.03;4960417;28;20054;-62
2022/01/13 09:34:14;;;;;;;6.23;2.40;;;;;;;15.77;29.55;101679.31;4965562;28;20070;-62
2022/01/13 09:36:41;;;;;;;3.07;2.00;;;;;;;16.02;29.37;101674.69;4967352;28;20141;-62
2022/01/13 09:39:10;;;;;;;8.17;2.70;;;;;;;16.54;29.39;101673.22;4964660;28;20249;-62
2022/01/13 09:41:42;;;;;;;4.78;2.53;;;;;;;17.23;28.56;101689.00;4966151;28;20472;-63
2022/01/13 09:44:10;;;;;;;5.22;2.72;;;;;;;17.60;28.05;101700.75;4968523;28;20054;-61
2022/01/13 09:46:37;;;;;;;6.07;2.90;;;;;;;18.04;27.93;101689.19;4967058;28;20042;-61
2022/01/13 09:49:05;;;;;;;5.50;2.80;;;;;;;18.44;27.64;101693.44;4968446;28;20102;-61
2022/01/13 09:51:35;;;;;;;3.35;2.08;;;;;;;19.73;27.28;101694.91;4969389;28;20046;-61
2022/01/13 09:54:03;;;;;;;10.60;4.35;;;;;;;20.84;26.64;101702.03;4965607;28;20508;-61
2022/01/13 09:56:33;;;;;;;10.98;6.55;;;;;;;21.29;25.61;101701.97;4965232;28;20145;-61
2022/01/13 09:59:00;;;;;;;;;;;;;;;21.89;26.74;101709.16;4967720;28;20161;-61
2022/01/13 10:01:27;;;;;;;5.25;2.45;;;;;;;22.70;25.64;101708.63;4967706;28;19968;-61
2022/01/13 10:03:54;;;;;;;5.93;2.70;;;;;;;23.08;24.93;101725.91;4968428;28;20180;-63
2022/01/13 10:06:21;;;;;;;6.72;3.35;;;;;;;22.87;24.12;101716.34;4966158;28;20527;-60
2022/01/13 10:08:52;;;;;;;5.28;2.33;;;;;;;23.51;24.06;101718.44;4968562;28;20051;-60
2022/01/13 10:11:33;;;;;;;5.10;3.17;;;;;;;24.15;23.94;101726.06;4961194;28;20146;-63
2022/01/13 10:14:06;;;;;;;1.35;1.25;;;;;;;24.09;23.61;101733.97;4966875;28;20078;-61
2022/01/13 10:16:33;;;;;;;3.15;1.90;;;;;;;23.50;22.58;101722.47;4966752;28;20141;-61
2022/01/13 10:19:00;;;;;;;4.88;2.05;;;;;;;22.47;22.25;101727.91;4966746;28;20058;-61
2022/01/13 10:21:27;;;;;;;3.50;1.20;;;;;;;21.55;22.75;101743.97;4965247;28;20058;-62
2022/01/13 10:24:06;;;;;;;3.20;1.35;;;;;;;20.77;23.22;101736.53;4963393;28;20133;-63
2022/01/13 10:26:34;;;;;;;3.22;1.98;;;;;;;20.36;24.07;101736.63;4962434;28;20039;-61
2022/01/13 10:29:03;;;;;;;4.93;2.00;;;;;;;20.51;24.04;101738.28;4962174;28;20070;-61
2022/01/13 10:31:49;;;;;;;6.85;2.28;;;;;;;20.82;24.03;101727.06;4961062;28;20211;-61
2022/01/13 10:34:22;;;;;;;3.65;2.35;;;;;;;21.59;24.05;101744.97;4960485;28;20569;-61
2022/01/13 10:37:11;;;;;;;6.55;2.05;;;;;;;21.42;23.54;101735.19;4961745;28;20058;-61
2022/01/13 10:40:00;;;;;;;6.50;2.78;;;;;;;21.83;23.75;101734.06;4963777;28;20141;-61
2022/01/13 10:45:00;;;;;;;4.75;2.67;;;;;;;22.76;23.14;101738.63;4964828;28;20047;-61
2022/01/13 10:47:28;;;;;;;4.40;2.85;;;;;;;23.56;22.82;101727.66;4963631;28;20154;-61
2022/01/13 10:50:00;;;;;;;6.38;3.88;;;;;;;23.79;22.23;101736.78;4962509;28;20071;-62
2022/01/13 10:52:28;;;;;;;5.35;3.17;;;;;;;23.63;21.81;101732.81;4963303;28;20059;-62
2022/01/13 10:55:07;;;;;;;4.72;2.92;;;;;;;23.71;22.17;101722.59;4965305;28;20560;-61
2022/01/13 10:57:49;;;;;;;5.13;3.33;;;;;;;23.20;21.61;101724.38;4963968;28;20047;-62
2022/01/13 11:00:16;;;;;;;9.05;3.63;;;;;;;22.68;21.79;101748.00;4961794;28;20047;-62
2022/01/13 11:03:02;;;;;;;4.53;2.88;;;;;;;22.80;22.36;101739.63;4961245;28;20085;-62
2022/01/13 11:05:31;;;;;;;4.97;3.28;;;;;;;22.26;22.15;101746.75;4964352;28;20062;-62
2022/01/13 11:08:02;;;;;;;4.60;3.28;;;;;;;22.82;22.10;101737.28;4958691;28;20812;-62
2022/01/13 11:10:29;;;;;;;3.60;2.00;;;;;;;22.50;21.90;101747.16;4966463;28;20062;-61
2022/01/13 11:12:58;;;;;;;4.93;2.50;;;;;;;22.70;22.38;101739.94;4960677;28;20138;-61
2022/01/13 11:15:27;;;;;;;5.55;3.28;;;;;;;23.00;22.88;101725.91;4964825;28;20065;-62
2022/01/13 11:17:56;;;;;;;7.88;3.55;;;;;;;23.98;21.63;101709.88;4964292;28;20046;-60
2022/01/13 11:20:25;;;;;;;6.57;3.63;;;;;;;24.65;21.84;101733.78;4917396;28;20084;-61
2022/01/13 11:22:55;;;;;;;6.53;2.90;;;;;;;24.61;21.30;101722.22;4903270;29;20610;-62
2022/01/13 11:25:24;;;;;;;5.80;2.97;;;;;;;24.15;21.58;101704.06;4902408;29;20498;-62
2022/01/13 11:27:52;;;;;;;5.13;3.65;;;;;;;25.09;21.63;101719.97;4902822;29;20151;-62
2022/01/13 11:30:23;;;;;;;6.75;2.92;;;;;;;25.10;19.98;101711.06;4899197;29;20096;-63
2022/01/13 11:32:50;;;;;;;3.85;2.88;;;;;;;25.12;20.52;101720.13;4904940;29;20487;-62
2022/01/13 11:35:24;;;;;;;4.75;2.95;;;;;;;25.37;19.96;101708.75;4911285;29;20143;-62
2022/01/13 11:37:53;;;;;;;7.38;3.13;;;;;;;25.65;20.57;101701.22;4907355;29;20091;-62
2022/01/13 11:40:25;;;;;;;4.93;3.08;;;;;;;26.04;20.01;101720.94;4906982;29;20439;-62
2022/01/13 11:42:58;;;;;;;6.78;3.78;;;;;;;26.16;20.16;101713.19;4903036;29;20152;-62
2022/01/13 11:45:26;;;;;;;5.50;2.97;;;;;;;26.83;19.49;101704.22;4909482;29;20044;-62
2022/01/13 11:48:20;;;;;;;8.48;3.60;;;;;;;27.46;19.32;101707.28;4912735;29;20052;-62
2022/01/13 11:50:52;;;;;;;6.10;3.53;;;;;;;27.86;18.97;101697.69;4907581;29;20463;-62
2022/01/13 11:53:26;;;;;;;6.22;3.70;;;;;;;29.11;18.89;101705.50;4910974;29;20102;-62
2022/01/13 11:56:02;;;;;;;5.45;3.70;;;;;;;29.65;18.38;101701.63;4903764;29;20460;-62
2022/01/13 11:58:47;;;;;;;2.03;1.75;;;;;;;28.41;17.59;101700.66;4908671;29;20067;-63
2022/01/13 12:01:32;;;;;;;7.13;4.38;;;;;;;27.10;17.99;101694.78;4907913;29;20139;-63
2022/01/13 12:04:07;;;;;;;7.07;4.03;;;;;;;27.77;18.56;101691.31;4904931;29;21942;-62
2022/01/13 12:06:42;;;;;;;9.32;4.93;;;;;;;27.69;18.19;101692.28;4906499;29;20192;-62
2022/01/13 12:09:12;;;;;;;7.00;3.88;;;;;;;27.78;17.56;101695.84;4906544;29;20080;-63
2022/01/13 12:11:46;;;;;;;6.20;3.38;;;;;;;27.65;18.10;101693.03;4903407;29;20151;-62